createdAt,value
2018-03-19T00:01:01.418Z,53.59
2018-03-19T00:02:07.105Z,52.99
2018-03-19T00:03:12.812Z,53.36
2018-03-19T00:04:18.569Z,53.12
2018-03-19T00:05:24.552Z,53.54
2018-03-19T00:06:31.048Z,52.92
2018-03-19T00:07:36.765Z,53.38
2018-03-19T00:08:42.468Z,53.27
2018-03-19T00:09:49.694Z,53.53
2018-03-19T00:10:55.401Z,53.21
2018-03-19T00:12:01.893Z,53.03
2018-03-19T00:13:07.608Z,53.20
2018-03-19T00:14:14.089Z,53.06
2018-03-19T00:15:19.791Z,53.12
2018-03-19T00:16:26.275Z,53.29
2018-03-19T00:17:32.004Z,53.42
2018-03-19T00:18:38.496Z,53.56
2018-03-19T00:19:44.224Z,53.35
2018-03-19T00:20:49.918Z,52.94
2018-03-19T00:21:57.140Z,53.38
2018-03-19T00:23:02.865Z,53.02
2018-03-19T00:24:09.008Z,53.74
2018-03-19T00:25:15.491Z,53.38
2018-03-19T00:26:21.314Z,53.62
2018-03-19T00:27:28.002Z,53.62
2018-03-19T00:28:33.738Z,52.80
2018-03-19T00:29:39.453Z,52.93
2018-03-19T00:30:45.389Z,52.91
2018-03-19T00:31:51.872Z,53.03
2018-03-19T00:32:57.579Z,53.12
2018-03-19T00:34:03.317Z,52.95
2018-03-19T00:35:09.013Z,53.33
2018-03-19T00:36:14.524Z,53.11
2018-03-19T00:37:20.997Z,52.89
2018-03-19T00:38:26.709Z,52.66
2018-03-19T00:39:33.208Z,53.26
2018-03-19T00:40:38.731Z,53.27
2018-03-19T00:41:44.443Z,53.58
2018-03-19T00:42:50.000Z,52.46
2018-03-19T00:43:55.710Z,53.03
2018-03-19T00:45:01.432Z,53.06
2018-03-19T00:46:07.148Z,53.24
2018-03-19T00:47:12.887Z,52.56
2018-03-19T00:48:18.607Z,52.61
2018-03-19T00:49:24.348Z,52.48
2018-03-19T00:50:30.068Z,53.13
2018-03-19T00:51:36.555Z,53.51
2018-03-19T00:52:42.262Z,53.25
2018-03-19T00:53:48.746Z,53.00
2018-03-19T00:54:54.453Z,53.35
2018-03-19T00:56:00.172Z,53.31
2018-03-19T00:57:05.885Z,53.51
2018-03-19T00:58:11.618Z,53.64
2018-03-19T00:59:17.330Z,52.95
2018-03-19T01:00:23.819Z,53.36
2018-03-19T01:01:29.559Z,53.13
2018-03-19T01:02:35.269Z,53.61
2018-03-19T01:03:40.978Z,53.05
2018-03-19T01:04:46.687Z,53.58
2018-03-19T01:05:52.393Z,53.67
2018-03-19T01:06:58.894Z,53.50
2018-03-19T01:08:04.588Z,53.63
2018-03-19T01:09:11.367Z,53.68
2018-03-19T01:10:19.932Z,53.41
2018-03-19T01:11:25.810Z,53.55
2018-03-19T01:12:32.308Z,53.34
2018-03-19T01:13:38.032Z,52.94
2018-03-19T01:14:43.762Z,53.59
2018-03-19T01:15:49.460Z,53.27
2018-03-19T01:16:55.203Z,53.30
2018-03-19T01:18:00.946Z,53.27
2018-03-19T01:19:06.332Z,53.67
2018-03-19T01:20:12.040Z,53.66
2018-03-19T01:21:18.540Z,53.47
2018-03-19T01:22:24.239Z,53.24
2018-03-19T01:23:29.955Z,53.44
2018-03-19T01:24:35.673Z,54.09
2018-03-19T01:25:41.375Z,53.37
2018-03-19T01:26:47.855Z,53.03
2018-03-19T01:27:53.553Z,53.38
2018-03-19T01:29:00.065Z,53.42
2018-03-19T01:30:05.452Z,53.34
2018-03-19T01:31:11.931Z,53.80
2018-03-19T01:32:18.394Z,53.97
2018-03-19T01:33:24.111Z,53.94
2018-03-19T01:34:30.622Z,53.91
2018-03-19T01:35:36.323Z,54.46
2018-03-19T01:36:42.028Z,54.31
2018-03-19T01:37:47.752Z,53.88
2018-03-19T01:38:53.473Z,53.88
2018-03-19T01:39:59.215Z,54.22
2018-03-19T01:41:04.694Z,53.51
2018-03-19T01:42:10.416Z,54.23
2018-03-19T01:43:16.138Z,54.10
2018-03-19T01:44:21.854Z,54.45
2018-03-19T01:45:27.593Z,54.43
2018-03-19T01:46:33.298Z,54.72
2018-03-19T01:47:39.007Z,54.32
2018-03-19T01:48:44.748Z,54.64
2018-03-19T01:49:50.456Z,53.68
2018-03-19T01:50:56.182Z,53.96
2018-03-19T01:52:02.650Z,53.74
2018-03-19T01:53:08.046Z,53.95
2018-03-19T01:54:13.764Z,54.35
2018-03-19T01:55:19.456Z,54.25
2018-03-19T01:56:25.940Z,54.67
2018-03-19T01:57:31.743Z,53.87
2018-03-19T01:58:37.450Z,53.84
2018-03-19T01:59:43.169Z,54.34
2018-03-19T02:00:48.869Z,53.73
2018-03-19T02:01:54.645Z,53.85
2018-03-19T02:03:00.336Z,53.25
2018-03-19T02:04:06.814Z,53.33
2018-03-19T02:05:13.278Z,53.12
2018-03-19T02:06:18.998Z,53.15
2018-03-19T02:07:25.493Z,53.27
2018-03-19T02:08:31.201Z,53.77
2018-03-19T02:09:37.673Z,53.91
2018-03-19T02:10:43.388Z,53.69
2018-03-19T02:11:49.089Z,54.15
2018-03-19T02:12:55.206Z,54.16
2018-03-19T02:14:00.912Z,53.82
2018-03-19T02:15:06.307Z,53.65
2018-03-19T02:16:12.025Z,53.53
2018-03-19T02:17:17.729Z,53.34
2018-03-19T02:18:23.465Z,53.50
2018-03-19T02:19:28.837Z,53.37
2018-03-19T02:20:34.213Z,53.81
2018-03-19T02:21:39.733Z,53.35
2018-03-19T02:22:45.452Z,53.96
2018-03-19T02:23:51.177Z,53.95
2018-03-19T02:24:57.650Z,53.39
2018-03-19T02:26:03.352Z,53.48
2018-03-19T02:27:09.061Z,53.56
2018-03-19T02:28:14.765Z,53.70
2018-03-19T02:29:21.249Z,53.75
2018-03-19T02:30:26.966Z,53.48
2018-03-19T02:31:32.673Z,53.67
2018-03-19T02:32:39.148Z,53.89
2018-03-19T02:33:45.626Z,53.89
2018-03-19T02:34:51.374Z,54.04
2018-03-19T02:35:57.098Z,53.65
2018-03-19T02:37:02.809Z,53.96
2018-03-19T02:38:08.517Z,54.11
2018-03-19T02:39:14.217Z,54.31
2018-03-19T02:40:19.948Z,54.24
2018-03-19T02:41:26.421Z,53.88
2018-03-19T02:42:32.133Z,54.01
2018-03-19T02:43:37.873Z,53.66
2018-03-19T02:44:44.905Z,53.60
2018-03-19T02:45:50.626Z,53.68
2018-03-19T02:46:56.440Z,54.12
2018-03-19T02:48:02.326Z,53.67
2018-03-19T02:49:08.057Z,54.22
2018-03-19T02:50:13.754Z,54.03
2018-03-19T02:51:20.316Z,53.97
2018-03-19T02:52:26.187Z,54.09
2018-03-19T02:53:31.910Z,53.84
2018-03-19T02:54:37.615Z,53.56
2018-03-19T02:55:43.330Z,54.21
2018-03-19T02:56:48.878Z,54.36
2018-03-19T02:57:54.589Z,54.28
2018-03-19T02:59:00.313Z,54.19
2018-03-19T03:00:05.906Z,53.94
2018-03-19T03:01:11.720Z,54.09
2018-03-19T03:02:17.452Z,54.23
2018-03-19T03:03:23.153Z,53.68
2018-03-19T03:04:28.860Z,54.04
2018-03-19T03:05:34.568Z,53.71
2018-03-19T03:06:40.311Z,54.23
2018-03-19T03:07:46.026Z,54.10
2018-03-19T03:08:52.503Z,54.57
2018-03-19T03:09:58.984Z,54.65
2018-03-19T03:11:04.690Z,54.47
2018-03-19T03:12:11.158Z,54.86
2018-03-19T03:13:16.888Z,54.95
2018-03-19T03:14:22.593Z,55.30
2018-03-19T03:15:28.305Z,55.16
2018-03-19T03:16:33.692Z,55.29
2018-03-19T03:17:40.180Z,55.33
2018-03-19T03:18:45.881Z,55.35
2018-03-19T03:19:51.587Z,55.30
2018-03-19T03:20:57.305Z,55.39
2018-03-19T03:22:03.035Z,55.20
2018-03-19T03:23:09.528Z,55.16
2018-03-19T03:24:15.237Z,55.42
2018-03-19T03:25:21.746Z,55.22
2018-03-19T03:26:27.612Z,55.23
2018-03-19T03:27:33.313Z,55.01
2018-03-19T03:28:39.048Z,55.25
2018-03-19T03:29:44.762Z,54.87
2018-03-19T03:30:51.243Z,55.32
2018-03-19T03:31:56.967Z,55.25
2018-03-19T03:33:02.682Z,55.37
2018-03-19T03:34:09.179Z,55.36
2018-03-19T03:35:14.889Z,55.34
2018-03-19T03:36:21.363Z,55.33
2018-03-19T03:37:27.064Z,55.43
2018-03-19T03:38:32.778Z,55.36
2018-03-19T03:39:38.510Z,55.40
2018-03-19T03:40:44.220Z,55.45
2018-03-19T03:41:49.935Z,55.47
2018-03-19T03:42:56.408Z,55.62
2018-03-19T03:44:02.885Z,55.57
2018-03-19T03:45:08.626Z,55.51
2018-03-19T03:46:14.361Z,55.41
2018-03-19T03:47:20.068Z,55.36
2018-03-19T03:48:26.007Z,55.40
2018-03-19T03:49:31.740Z,55.25
2018-03-19T03:50:37.240Z,55.13
2018-03-19T03:51:42.964Z,55.19
2018-03-19T03:52:48.680Z,55.37
2018-03-19T03:53:55.882Z,55.19
2018-03-19T03:55:01.649Z,55.17
2018-03-19T03:56:07.352Z,55.41
2018-03-19T03:57:13.817Z,55.32
2018-03-19T03:58:19.529Z,55.25
2018-03-19T03:59:25.996Z,55.27
2018-03-19T04:00:32.505Z,55.29
2018-03-19T04:01:38.221Z,55.33
2018-03-19T04:02:43.926Z,55.34
2018-03-19T04:03:49.632Z,55.34
2018-03-19T04:04:55.352Z,55.33
2018-03-19T04:06:01.083Z,55.21
2018-03-19T04:07:06.797Z,55.19
2018-03-19T04:08:12.726Z,55.19
2018-03-19T04:09:18.443Z,55.37
2018-03-19T04:10:24.146Z,55.29
2018-03-19T04:11:29.878Z,55.27
2018-03-19T04:12:36.352Z,55.32
2018-03-19T04:13:42.072Z,55.30
2018-03-19T04:14:48.557Z,55.33
2018-03-19T04:15:54.256Z,55.21
2018-03-19T04:16:59.987Z,55.17
2018-03-19T04:18:05.708Z,55.18
2018-03-19T04:19:11.441Z,55.18
2018-03-19T04:20:17.147Z,55.11
2018-03-19T04:21:22.848Z,55.16
2018-03-19T04:22:28.584Z,55.32
2018-03-19T04:23:34.305Z,55.33
2018-03-19T04:24:40.047Z,55.33
2018-03-19T04:25:45.763Z,55.43
2018-03-19T04:26:51.481Z,55.31
2018-03-19T04:27:57.991Z,55.25
2018-03-19T04:29:03.696Z,55.11
2018-03-19T04:30:09.408Z,55.15
2018-03-19T04:31:15.141Z,55.18
2018-03-19T04:32:20.850Z,55.26
2018-03-19T04:33:26.592Z,55.28
2018-03-19T04:34:32.301Z,55.30
2018-03-19T04:35:38.769Z,55.24
2018-03-19T04:36:44.463Z,55.30
2018-03-19T04:37:50.219Z,55.34
2018-03-19T04:38:56.121Z,55.44
2018-03-19T04:40:01.824Z,55.47
2018-03-19T04:41:07.535Z,55.46
2018-03-19T04:42:13.248Z,55.52
2018-03-19T04:43:18.960Z,55.61
2018-03-19T04:44:24.691Z,55.54
2018-03-19T04:45:30.405Z,55.56
2018-03-19T04:46:36.919Z,55.64
2018-03-19T04:47:42.680Z,55.76
2018-03-19T04:48:49.157Z,55.69
2018-03-19T04:49:54.896Z,55.76
2018-03-19T04:51:00.591Z,55.84
2018-03-19T04:52:06.300Z,55.94
2018-03-19T04:53:12.012Z,56.02
2018-03-19T04:54:17.717Z,55.99
2018-03-19T04:55:23.454Z,55.95
2018-03-19T04:56:29.164Z,55.92
2018-03-19T04:57:34.902Z,55.98
2018-03-19T04:58:41.404Z,55.97
2018-03-19T04:59:47.107Z,56.11
2018-03-19T05:00:52.843Z,56.08
2018-03-19T05:01:59.339Z,56.00
2018-03-19T05:03:05.074Z,55.99
2018-03-19T05:04:10.782Z,56.02
2018-03-19T05:05:16.493Z,56.14
2018-03-19T05:06:22.224Z,55.97
2018-03-19T05:07:27.939Z,56.17
2018-03-19T05:08:33.652Z,56.15
2018-03-19T05:09:39.359Z,55.96
2018-03-19T05:10:45.833Z,56.17
2018-03-19T05:11:52.339Z,56.17
2018-03-19T05:12:58.258Z,56.20
2018-03-19T05:14:04.054Z,56.18
2018-03-19T05:15:09.767Z,56.22
2018-03-19T05:16:15.484Z,56.26
2018-03-19T05:17:21.232Z,56.41
2018-03-19T05:18:26.984Z,56.35
2018-03-19T05:19:32.693Z,56.02
2018-03-19T05:20:38.446Z,56.45
2018-03-19T05:21:44.161Z,56.42
2018-03-19T05:22:50.660Z,56.40
2018-03-19T05:23:56.378Z,56.40
2018-03-19T05:25:02.085Z,56.45
2018-03-19T05:26:07.845Z,56.46
2018-03-19T05:27:14.315Z,56.41
2018-03-19T05:28:20.051Z,56.35
2018-03-19T05:29:26.532Z,56.45
2018-03-19T05:30:32.241Z,56.48
2018-03-19T05:31:38.709Z,56.55
2018-03-19T05:32:44.415Z,56.43
2018-03-19T05:33:50.154Z,56.54
2018-03-19T05:34:56.632Z,56.51
2018-03-19T05:36:03.128Z,56.50
2018-03-19T05:37:08.836Z,56.52
2018-03-19T05:38:14.805Z,56.41
2018-03-19T05:39:20.531Z,56.24
2018-03-19T05:40:27.005Z,56.35
2018-03-19T05:41:32.726Z,56.36
2018-03-19T05:42:39.209Z,56.47
2018-03-19T05:43:44.914Z,56.51
2018-03-19T05:44:50.629Z,56.36
2018-03-19T05:45:56.339Z,56.30
2018-03-19T05:47:02.094Z,56.38
2018-03-19T05:48:08.060Z,56.47
2018-03-19T05:49:14.673Z,56.43
2018-03-19T05:50:20.430Z,56.35
2018-03-19T05:51:26.177Z,56.35
2018-03-19T05:52:32.105Z,56.29
2018-03-19T05:53:37.830Z,56.25
2018-03-19T05:54:44.303Z,56.22
2018-03-19T05:55:50.030Z,56.17
2018-03-19T05:56:55.788Z,56.19
2018-03-19T05:58:01.509Z,56.25
2018-03-19T05:59:07.996Z,56.18
2018-03-19T06:00:13.750Z,56.29
2018-03-19T06:01:19.480Z,56.22
2018-03-19T06:02:25.032Z,56.12
2018-03-19T06:03:30.749Z,55.93
2018-03-19T06:04:36.462Z,55.97
2018-03-19T06:05:42.923Z,55.94
2018-03-19T06:06:49.417Z,55.92
2018-03-19T06:07:55.132Z,56.02
2018-03-19T06:09:00.862Z,56.02
2018-03-19T06:10:06.237Z,56.03
2018-03-19T06:11:12.201Z,56.08
2018-03-19T06:12:18.172Z,56.10
2018-03-19T06:13:23.951Z,55.96
2018-03-19T06:14:29.684Z,55.97
2018-03-19T06:15:35.620Z,55.98
2018-03-19T06:16:41.359Z,56.07
2018-03-19T06:17:47.103Z,56.11
2018-03-19T06:18:53.285Z,56.06
2018-03-19T06:19:59.105Z,55.97
2018-03-19T06:21:04.822Z,55.89
2018-03-19T06:22:10.549Z,55.86
2018-03-19T06:23:16.283Z,55.80
2018-03-19T06:24:22.017Z,55.71
2018-03-19T06:25:29.244Z,55.65
2018-03-19T06:26:35.115Z,55.78
2018-03-19T06:27:41.622Z,55.96
2018-03-19T06:28:47.362Z,55.99
2018-03-19T06:29:53.076Z,55.86
2018-03-19T06:30:58.785Z,55.83
2018-03-19T06:32:04.260Z,55.65
2018-03-19T06:33:10.019Z,55.52
2018-03-19T06:34:15.504Z,55.80
2018-03-19T06:35:21.834Z,55.81
2018-03-19T06:36:27.729Z,55.99
2018-03-19T06:37:33.454Z,56.02
2018-03-19T06:38:39.004Z,55.94
2018-03-19T06:39:44.749Z,55.93
2018-03-19T06:40:50.452Z,56.06
2018-03-19T06:41:56.217Z,56.02
2018-03-19T06:43:02.701Z,55.96
2018-03-19T06:44:08.422Z,55.74
2018-03-19T06:45:14.184Z,55.94
2018-03-19T06:46:19.932Z,55.88
2018-03-19T06:47:27.530Z,56.08
2018-03-19T06:48:35.933Z,55.68
2018-03-19T06:49:41.678Z,55.81
2018-03-19T06:50:47.432Z,55.90
2018-03-19T06:51:53.146Z,55.89
2018-03-19T06:52:58.869Z,55.63
2018-03-19T06:54:04.657Z,55.58
2018-03-19T06:55:10.384Z,55.70
2018-03-19T06:56:16.261Z,55.81
2018-03-19T06:57:22.769Z,55.60
2018-03-19T06:58:28.495Z,55.62
2018-03-19T06:59:34.201Z,55.75
2018-03-19T07:00:39.958Z,55.72
2018-03-19T07:01:45.674Z,55.67
2018-03-19T07:02:51.387Z,55.67
2018-03-19T07:03:57.101Z,55.66
2018-03-19T07:05:02.800Z,55.51
2018-03-19T07:06:09.304Z,55.75
2018-03-19T07:07:15.032Z,55.55
2018-03-19T07:08:20.745Z,55.47
2018-03-19T07:09:26.455Z,55.49
2018-03-19T07:10:32.172Z,55.47
2018-03-19T07:11:37.904Z,55.36
2018-03-19T07:12:44.025Z,55.38
2018-03-19T07:13:50.498Z,55.50
2018-03-19T07:14:56.216Z,55.45
2018-03-19T07:16:02.697Z,55.46
2018-03-19T07:17:08.453Z,55.54
2018-03-19T07:18:14.164Z,55.61
2018-03-19T07:19:20.641Z,55.44
2018-03-19T07:20:26.351Z,55.47
2018-03-19T07:21:32.057Z,55.32
2018-03-19T07:22:37.824Z,55.38
2018-03-19T07:23:43.721Z,55.32
2018-03-19T07:24:49.428Z,55.17
2018-03-19T07:25:55.910Z,55.08
2018-03-19T07:27:01.620Z,55.04
2018-03-19T07:28:08.126Z,54.92
2018-03-19T07:29:13.853Z,54.61
2018-03-19T07:30:19.565Z,55.06
2018-03-19T07:31:26.048Z,55.13
2018-03-19T07:32:31.752Z,55.19
2018-03-19T07:33:37.527Z,55.08
2018-03-19T07:34:43.259Z,54.86
2018-03-19T07:35:49.931Z,54.50
2018-03-19T07:36:55.644Z,54.81
2018-03-19T07:38:01.353Z,54.99
2018-03-19T07:39:06.420Z,54.82
2018-03-19T07:40:12.898Z,55.22
2018-03-19T07:41:18.620Z,54.64
2018-03-19T07:42:25.100Z,54.82
2018-03-19T07:43:30.835Z,54.29
2018-03-19T07:44:36.616Z,54.66
2018-03-19T07:45:42.321Z,54.50
2018-03-19T07:46:48.365Z,54.12
2018-03-19T07:47:54.080Z,54.01
2018-03-19T07:49:00.585Z,54.09
2018-03-19T07:50:06.816Z,53.87
2018-03-19T07:51:12.543Z,53.41
2018-03-19T07:52:19.022Z,52.82
2018-03-19T07:53:24.952Z,51.95
2018-03-19T07:54:31.458Z,50.95
2018-03-19T07:55:37.171Z,50.91
2018-03-19T07:56:42.874Z,49.00
2018-03-19T07:57:49.572Z,47.67
2018-03-19T07:58:55.265Z,46.46
2018-03-19T08:00:01.014Z,46.54
2018-03-19T08:01:06.716Z,45.54
2018-03-19T08:02:12.426Z,44.18
2018-03-19T08:03:18.136Z,44.58
2018-03-19T08:04:24.608Z,42.82
2018-03-19T08:05:31.101Z,42.54
2018-03-19T08:06:36.801Z,41.89
2018-03-19T08:07:43.281Z,41.08
2018-03-19T08:08:48.985Z,40.80
2018-03-19T08:09:54.700Z,39.80
2018-03-19T08:11:00.460Z,39.41
2018-03-19T08:12:06.228Z,38.51
2018-03-19T08:13:12.100Z,38.34
2018-03-19T08:14:18.581Z,37.99
2018-03-19T08:15:24.288Z,37.49
2018-03-19T08:16:30.021Z,37.35
2018-03-19T08:17:36.507Z,36.33
2018-03-19T08:18:42.197Z,36.21
2018-03-19T08:19:47.900Z,36.51
2018-03-19T08:20:53.875Z,36.14
2018-03-19T08:21:59.600Z,36.60
2018-03-19T08:23:05.090Z,35.93
2018-03-19T08:24:11.211Z,36.13
2018-03-19T08:25:17.694Z,35.76
2018-03-19T08:26:23.408Z,35.61
2018-03-19T08:27:29.153Z,35.68
2018-03-19T08:28:34.873Z,34.27
2018-03-19T08:29:40.581Z,34.60
2018-03-19T08:30:46.277Z,33.23
2018-03-19T08:31:52.772Z,34.23
2018-03-19T08:32:58.500Z,33.92
2018-03-19T08:34:04.241Z,33.69
2018-03-19T08:35:09.958Z,33.55
2018-03-19T08:36:16.636Z,33.71
2018-03-19T08:37:22.340Z,34.06
2018-03-19T08:38:28.078Z,34.16
2018-03-19T08:39:33.780Z,33.88
2018-03-19T08:40:39.510Z,33.68
2018-03-19T08:41:45.235Z,33.92
2018-03-19T08:42:51.121Z,33.25
2018-03-19T08:43:56.846Z,33.50
2018-03-19T08:45:02.552Z,33.62
2018-03-19T08:46:08.249Z,32.84
2018-03-19T08:47:13.956Z,31.78
2018-03-19T08:48:19.664Z,31.92
2018-03-19T08:49:26.169Z,31.56
2018-03-19T08:50:31.863Z,31.31
2018-03-19T08:51:37.574Z,30.84
2018-03-19T08:52:43.498Z,30.25
2018-03-19T08:53:49.220Z,30.77
2018-03-19T08:54:54.961Z,29.51
2018-03-19T08:56:00.984Z,29.80
2018-03-19T08:57:07.473Z,29.95
2018-03-19T08:58:13.204Z,30.08
2018-03-19T08:59:18.928Z,30.60
2018-03-19T09:00:25.432Z,30.43
2018-03-19T09:01:31.149Z,30.11
2018-03-19T09:02:36.874Z,29.56
2018-03-19T09:03:42.764Z,29.96
2018-03-19T09:04:48.489Z,29.20
2018-03-19T09:05:54.233Z,29.08
2018-03-19T09:06:59.944Z,29.55
2018-03-19T09:08:06.422Z,29.41
2018-03-19T09:09:12.144Z,28.97
2018-03-19T09:10:18.605Z,28.46
2018-03-19T09:11:25.105Z,29.18
2018-03-19T09:12:30.815Z,28.96
2018-03-19T09:13:36.525Z,29.37
2018-03-19T09:14:42.252Z,29.79
2018-03-19T09:15:48.025Z,29.44
2018-03-19T09:16:54.502Z,29.44
2018-03-19T09:18:00.213Z,29.43
2018-03-19T09:19:06.701Z,29.20
2018-03-19T09:20:12.411Z,28.24
2018-03-19T09:21:18.900Z,27.89
2018-03-19T09:22:24.734Z,28.22
2018-03-19T09:23:30.448Z,28.76
2018-03-19T09:24:36.959Z,28.51
2018-03-19T09:25:42.676Z,28.92
2018-03-19T09:26:48.412Z,27.69
2018-03-19T09:27:54.153Z,27.77
2018-03-19T09:28:59.677Z,27.73
2018-03-19T09:30:05.840Z,27.81
2018-03-19T09:31:12.343Z,27.02
2018-03-19T09:32:18.067Z,27.06
2018-03-19T09:33:23.812Z,27.03
2018-03-19T09:34:29.522Z,27.34
2018-03-19T09:35:35.235Z,27.80
2018-03-19T09:36:40.986Z,27.77
2018-03-19T09:37:46.856Z,28.13
2018-03-19T09:38:52.581Z,28.42
2018-03-19T09:39:59.048Z,28.09
2018-03-19T09:41:04.765Z,28.60
2018-03-19T09:42:11.351Z,29.01
2018-03-19T09:43:17.829Z,28.09
2018-03-19T09:44:23.554Z,28.38
2018-03-19T09:45:29.250Z,27.71
2018-03-19T09:46:34.956Z,27.73
2018-03-19T09:47:41.432Z,27.50
2018-03-19T09:48:47.128Z,27.54
2018-03-19T09:49:52.869Z,27.39
2018-03-19T09:50:59.333Z,28.10
2018-03-19T09:52:05.065Z,28.27
2018-03-19T09:53:10.784Z,28.46
2018-03-19T09:54:16.484Z,28.42
2018-03-19T09:55:22.298Z,28.89
2018-03-19T09:56:28.120Z,28.19
2018-03-19T09:57:34.614Z,28.04
2018-03-19T09:58:40.329Z,27.52
2018-03-19T09:59:46.793Z,27.83
2018-03-19T10:00:52.537Z,28.45
2018-03-19T10:01:58.324Z,27.78
2018-03-19T10:03:04.029Z,28.12
2018-03-19T10:04:09.732Z,28.43
2018-03-19T10:05:15.874Z,28.56
2018-03-19T10:06:21.599Z,29.01
2018-03-19T10:07:27.110Z,29.08
2018-03-19T10:08:32.825Z,28.96
2018-03-19T10:09:38.548Z,29.42
2018-03-19T10:10:45.036Z,28.90
2018-03-19T10:11:50.752Z,29.49
2018-03-19T10:12:57.217Z,28.90
2018-03-19T10:14:02.924Z,29.34
2018-03-19T10:15:08.648Z,29.57
2018-03-19T10:16:14.385Z,29.87
2018-03-19T10:17:20.309Z,29.79
2018-03-19T10:18:26.435Z,29.94
2018-03-19T10:19:32.893Z,29.45
2018-03-19T10:20:39.358Z,29.58
2018-03-19T10:21:45.099Z,30.36
2018-03-19T10:22:51.049Z,30.68
2018-03-19T10:23:56.778Z,30.07
2018-03-19T10:25:03.252Z,30.58
2018-03-19T10:26:08.960Z,30.60
2018-03-19T10:27:14.653Z,30.27
2018-03-19T10:28:21.128Z,30.61
2018-03-19T10:29:26.824Z,30.68
2018-03-19T10:30:32.536Z,30.49
2018-03-19T10:31:37.996Z,30.53
2018-03-19T10:32:43.718Z,30.64
2018-03-19T10:33:49.108Z,31.26
2018-03-19T10:34:54.810Z,30.63
2018-03-19T10:36:01.269Z,30.68
2018-03-19T10:37:06.957Z,30.99
2018-03-19T10:38:12.653Z,31.38
2018-03-19T10:39:18.445Z,32.04
2018-03-19T10:40:24.148Z,32.34
2018-03-19T10:41:29.845Z,32.39
2018-03-19T10:42:35.541Z,32.63
2018-03-19T10:43:41.245Z,33.06
2018-03-19T10:44:46.973Z,33.29
2018-03-19T10:45:53.457Z,33.41
2018-03-19T10:46:59.144Z,33.15
2018-03-19T10:48:04.845Z,32.76
2018-03-19T10:49:10.555Z,32.91
2018-03-19T10:50:17.040Z,32.58
2018-03-19T10:51:22.741Z,32.57
2018-03-19T10:52:28.438Z,32.78
2018-03-19T10:53:34.146Z,33.37
2018-03-19T10:54:39.844Z,33.94
2018-03-19T10:55:45.555Z,33.99
2018-03-19T10:56:51.336Z,33.79
2018-03-19T10:57:57.024Z,33.60
2018-03-19T10:59:02.728Z,33.57
2018-03-19T11:00:08.346Z,33.93
2018-03-19T11:03:09.741Z,34.35
2018-03-19T11:04:16.254Z,34.98
2018-03-19T11:05:27.218Z,35.10
2018-03-19T11:08:14.726Z,35.88
2018-03-19T11:09:25.656Z,36.06
2018-03-19T11:10:31.371Z,36.35
2018-03-19T11:11:37.080Z,36.84
2018-03-19T11:12:42.787Z,36.54
2018-03-19T11:13:48.486Z,37.47
2018-03-19T11:14:54.204Z,37.71
2018-03-19T11:15:59.908Z,37.93
2018-03-19T11:17:05.678Z,38.49
2018-03-19T11:18:11.541Z,37.52
2018-03-19T11:19:17.241Z,37.75
2018-03-19T11:20:22.942Z,37.93
2018-03-19T11:21:29.407Z,37.85
2018-03-19T11:22:35.928Z,37.48
2018-03-19T11:23:41.633Z,36.89
2018-03-19T11:24:47.332Z,37.57
2018-03-19T11:25:53.043Z,37.79
2018-03-19T11:26:58.741Z,38.01
2018-03-19T11:28:05.222Z,37.99
2018-03-19T11:29:10.921Z,38.84
2018-03-19T11:30:17.389Z,39.61
2018-03-19T11:31:23.855Z,39.55
2018-03-19T11:32:29.565Z,39.75
2018-03-19T11:33:35.280Z,38.48
2018-03-19T11:34:40.969Z,38.42
2018-03-19T11:35:47.436Z,38.38
2018-03-19T11:36:53.130Z,37.92
2018-03-19T11:37:58.825Z,38.64
2018-03-19T11:39:03.796Z,39.26
2018-03-19T11:40:11.004Z,38.74
2018-03-19T11:41:17.469Z,39.30
2018-03-19T11:42:23.165Z,39.09
2018-03-19T11:43:28.865Z,39.13
2018-03-19T11:44:34.585Z,38.94
2018-03-19T11:45:41.053Z,39.44
2018-03-19T11:46:47.531Z,39.66
2018-03-19T11:47:53.233Z,39.65
2018-03-19T11:48:59.699Z,39.60
2018-03-19T11:50:06.194Z,39.37
2018-03-19T11:51:11.900Z,39.30
2018-03-19T11:52:18.356Z,38.72
2018-03-19T11:53:24.072Z,38.04
2018-03-19T11:54:29.756Z,37.54
2018-03-19T11:55:35.487Z,38.20
2018-03-19T11:56:40.966Z,38.91
2018-03-19T11:57:46.669Z,38.83
2018-03-19T11:58:52.364Z,39.12
2018-03-19T11:59:58.349Z,39.49
2018-03-19T12:01:03.885Z,39.83
2018-03-19T12:02:09.622Z,39.54
2018-03-19T12:03:16.093Z,39.35
2018-03-19T12:04:21.788Z,39.47
2018-03-19T12:05:27.497Z,39.25
2018-03-19T12:06:33.224Z,39.14
2018-03-19T12:07:38.917Z,39.01
2018-03-19T12:08:44.625Z,38.73
2018-03-19T12:09:50.394Z,39.15
2018-03-19T12:10:56.080Z,39.10
2018-03-19T12:12:01.819Z,39.00
2018-03-19T12:13:07.528Z,38.64
2018-03-19T12:14:14.004Z,38.86
2018-03-19T12:15:20.464Z,38.69
2018-03-19T12:16:26.198Z,38.68
2018-03-19T12:17:32.659Z,38.48
2018-03-19T12:18:38.402Z,38.25
2018-03-19T12:19:44.858Z,38.27
2018-03-19T12:20:51.330Z,38.61
2018-03-19T12:21:57.068Z,38.76
2018-03-19T12:23:02.590Z,38.47
2018-03-19T12:24:08.456Z,38.45
2018-03-19T12:25:14.145Z,38.29
2018-03-19T12:26:19.844Z,37.77
2018-03-19T12:27:26.305Z,37.38
2018-03-19T12:28:32.024Z,37.59
2018-03-19T12:29:37.724Z,37.77
2018-03-19T12:30:43.436Z,37.85
2018-03-19T12:31:49.134Z,37.70
2018-03-19T12:32:55.589Z,37.25
2018-03-19T12:34:02.069Z,37.42
2018-03-19T12:35:07.759Z,37.81
2018-03-19T12:36:13.469Z,37.84
2018-03-19T12:37:19.156Z,37.59
2018-03-19T12:38:25.615Z,37.20
2018-03-19T12:39:32.092Z,37.22
2018-03-19T12:40:37.795Z,37.39
2018-03-19T12:41:43.492Z,37.68
2018-03-19T12:42:49.965Z,37.66
2018-03-19T12:43:55.669Z,37.09
2018-03-19T12:45:02.145Z,37.06
2018-03-19T12:46:07.829Z,37.35
2018-03-19T12:47:15.038Z,37.58
2018-03-19T12:48:21.505Z,37.09
2018-03-19T12:49:27.958Z,37.12
2018-03-19T12:50:33.693Z,37.65
2018-03-19T12:51:40.255Z,37.16
2018-03-19T12:52:46.708Z,36.95
2018-03-19T12:53:53.162Z,36.07
2018-03-19T12:54:59.636Z,34.99
2018-03-19T12:56:05.364Z,34.98
2018-03-19T12:57:11.852Z,35.32
2018-03-19T12:58:17.537Z,35.53
2018-03-19T12:59:23.287Z,35.06
2018-03-19T13:00:28.987Z,35.44
2018-03-19T13:01:34.698Z,35.35
2018-03-19T13:02:40.206Z,35.38
2018-03-19T13:03:47.419Z,34.78
2018-03-19T13:04:53.145Z,35.04
2018-03-19T13:05:59.609Z,35.23
2018-03-19T13:07:05.320Z,35.14
2018-03-19T13:08:11.082Z,34.98
2018-03-19T13:09:17.549Z,35.04
2018-03-19T13:10:24.013Z,35.03
2018-03-19T13:11:29.760Z,35.37
2018-03-19T13:12:35.680Z,35.85
2018-03-19T13:13:42.151Z,36.26
2018-03-19T13:14:48.601Z,36.34
2018-03-19T13:15:54.347Z,36.28
2018-03-19T13:17:00.124Z,36.28
2018-03-19T13:18:05.846Z,36.09
2018-03-19T13:19:11.537Z,36.45
2018-03-19T13:20:17.274Z,35.68
2018-03-19T13:21:22.974Z,35.51
2018-03-19T13:22:28.667Z,35.37
2018-03-19T13:23:34.410Z,34.89
2018-03-19T13:24:40.378Z,35.21
2018-03-19T13:25:46.833Z,34.67
2018-03-19T13:26:53.297Z,35.04
2018-03-19T13:27:59.001Z,34.94
2018-03-19T13:29:04.714Z,35.18
2018-03-19T13:30:10.434Z,35.25
2018-03-19T13:31:16.146Z,35.54
2018-03-19T13:32:22.613Z,35.06
2018-03-19T13:33:28.354Z,35.64
2018-03-19T13:34:34.816Z,36.10
2018-03-19T13:35:41.282Z,36.10
2018-03-19T13:36:46.977Z,35.75
2018-03-19T13:37:52.675Z,35.26
2018-03-19T13:38:58.381Z,35.11
2018-03-19T13:40:04.572Z,35.23
2018-03-19T13:41:10.953Z,34.96
2018-03-19T13:42:16.661Z,34.59
2018-03-19T13:43:22.370Z,34.71
2018-03-19T13:44:28.838Z,34.46
2018-03-19T13:45:34.565Z,34.37
2018-03-19T13:46:40.244Z,34.26
2018-03-19T13:47:45.929Z,34.42
2018-03-19T13:48:51.627Z,34.57
2018-03-19T13:49:57.325Z,34.60
2018-03-19T13:51:03.044Z,34.26
2018-03-19T13:52:08.744Z,34.35
2018-03-19T13:53:14.444Z,34.58
2018-03-19T13:54:20.904Z,34.19
2018-03-19T13:55:27.369Z,33.12
2018-03-19T13:56:33.848Z,33.69
2018-03-19T13:57:39.541Z,34.07
2018-03-19T13:58:45.317Z,34.38
2018-03-19T13:59:52.001Z,34.20
2018-03-19T14:00:57.720Z,34.07
2018-03-19T14:02:03.441Z,34.52
2018-03-19T14:03:08.888Z,34.68
2018-03-19T14:04:15.353Z,34.76
2018-03-19T14:05:22.033Z,33.67
2018-03-19T14:06:27.764Z,33.37
2018-03-19T14:07:33.452Z,33.53
2018-03-19T14:08:39.163Z,33.33
2018-03-19T14:09:44.873Z,33.22
2018-03-19T14:10:51.344Z,33.34
2018-03-19T14:11:57.072Z,33.47
2018-03-19T14:13:03.543Z,33.79